Time;durP1;ratioP1;P1;durP2;ratioP2;P2;SDS_P1;SDS_P2;PMS_P1;PMS_P2;Temp;Humidity;BMP_temperature;BMP_pressure;BME280_temperature;BME280_humidity;BME280_pressure;Samples;Min_cycle;Max_cycle;Signal;HPM_P1;HPM_P2
2022/06/01 00:02:00;;;;;;;0.75;0.75;;;17.20;71.20;;;;;;4210927;28;20052;-68
2022/06/01 00:04:22;;;;;;;0.00;0.00;;;17.20;71.20;;;;;;4192475;28;20102;-68
2022/06/01 00:06:44;;;;;;;0.00;0.00;;;17.20;71.20;;;;;;4192789;28;20529;-68
2022/06/01 00:09:06;;;;;;;0.98;0.63;;;17.20;71.30;;;;;;4210144;28;20469;-68
2022/06/01 00:11:29;;;;;;;0.22;0.22;;;17.10;71.20;;;;;;4193538;28;20101;-68
2022/06/01 00:13:51;;;;;;;0.85;0.85;;;17.20;71.30;;;;;;4193741;28;20047;-68
2022/06/01 00:16:17;;;;;;;0.00;0.00;;;17.20;71.40;;;;;;4193865;28;20051;-67
2022/06/01 00:18:40;;;;;;;0.22;0.22;;;17.10;71.30;;;;;;4191900;28;20411;-68
2022/06/01 00:21:03;;;;;;;0.45;0.45;;;17.20;71.40;;;;;;4193733;28;22662;-68
2022/06/01 00:23:25;;;;;;;0.43;0.43;;;17.10;71.40;;;;;;4194086;28;20051;-68
2022/06/01 00:25:47;;;;;;;0.30;0.30;;;17.10;71.40;;;;;;4193659;28;20040;-68
2022/06/01 00:28:10;;;;;;;0.08;0.08;;;17.10;71.40;;;;;;4193831;28;20423;-68
2022/06/01 00:30:33;;;;;;;0.00;0.00;;;17.10;71.50;;;;;;4193206;28;20498;-68
2022/06/01 00:32:57;;;;;;;0.20;0.20;;;17.10;71.50;;;;;;4193335;28;20417;-68
2022/06/01 00:35:20;;;;;;;0.00;0.00;;;17.10;71.50;;;;;;4193298;28;20056;-69
2022/06/01 00:37:42;;;;;;;0.10;0.10;;;17.10;71.50;;;;;;4193134;28;20051;-68
2022/06/01 00:40:06;;;;;;;0.00;0.00;;;17.10;71.50;;;;;;4208345;28;20050;-68
2022/06/01 00:42:30;;;;;;;0.00;0.00;;;17.10;71.60;;;;;;4209896;28;20040;-69
2022/06/01 00:44:53;;;;;;;0.13;0.13;;;17.10;71.60;;;;;;4203619;28;20546;-69
2022/06/01 00:47:16;;;;;;;0.03;0.03;;;17.10;71.70;;;;;;4210096;28;20395;-68
2022/06/01 00:49:42;;;;;;;0.00;0.00;;;17.10;71.80;;;;;;4208547;28;20054;-68
2022/06/01 00:52:05;;;;;;;0.00;0.00;;;17.10;71.80;;;;;;4209985;28;20448;-68
2022/06/01 00:54:28;;;;;;;0.00;0.00;;;17.10;71.50;;;;;;4209856;28;20052;-68
2022/06/01 00:56:55;;;;;;;0.00;0.00;;;17.10;71.80;;;;;;4209954;28;20048;-68
2022/06/01 00:59:21;;;;;;;0.00;0.00;;;17.10;72.00;;;;;;4209151;28;20101;-67
2022/06/01 01:01:45;;;;;;;0.00;0.00;;;17.10;72.20;;;;;;4210393;28;20051;-67
2022/06/01 01:04:08;;;;;;;0.08;0.08;;;17.00;72.20;;;;;;4209869;28;20051;-67
2022/06/01 01:06:36;;;;;;;0.00;0.00;;;17.10;72.50;;;;;;4209491;28;20044;-68
2022/06/01 01:08:59;;;;;;;0.20;0.20;;;17.00;72.50;;;;;;4209556;28;20055;-68
2022/06/01 01:11:26;;;;;;;0.10;0.10;;;17.00;72.60;;;;;;4209717;28;20607;-67
2022/06/01 01:13:51;;;;;;;1.13;0.88;;;17.00;72.70;;;;;;4209304;28;20052;-67
2022/06/01 01:16:15;;;;;;;0.00;0.00;;;17.00;72.70;;;;;;4209822;28;20359;-68
2022/06/01 01:18:41;;;;;;;0.32;0.32;;;17.00;72.80;;;;;;4209195;28;20044;-68
2022/06/01 01:21:14;;;;;;;0.00;0.00;;;17.00;72.90;;;;;;4209504;28;20139;-67
2022/06/01 01:23:47;;;;;;;0.22;0.22;;;17.00;72.90;;;;;;4209616;28;20044;-67
2022/06/01 01:26:11;;;;;;;0.43;0.43;;;17.00;73.00;;;;;;4207537;28;20044;-67
2022/06/01 01:28:33;;;;;;;0.00;0.00;;;17.00;73.00;;;;;;4209453;28;20055;-68
2022/06/01 01:31:06;;;;;;;7.65;1.77;;;17.00;73.20;;;;;;4209249;28;20126;-68
2022/06/01 01:33:30;;;;;;;0.28;0.28;;;17.00;73.30;;;;;;4192290;28;20044;-68
2022/06/01 01:35:55;;;;;;;0.00;0.00;;;17.00;73.30;;;;;;4192820;28;20476;-68
2022/06/01 01:38:24;;;;;;;0.00;0.00;;;17.00;73.40;;;;;;4192210;28;20133;-68
2022/06/01 01:40:45;;;;;;;0.10;0.10;;;16.90;73.40;;;;;;4192049;28;20059;-68
2022/06/01 01:43:10;;;;;;;0.00;0.00;;;16.90;73.40;;;;;;4192376;28;20051;-68
2022/06/01 01:45:35;;;;;;;0.00;0.00;;;16.90;73.50;;;;;;4191928;28;20052;-67
2022/06/01 01:47:57;;;;;;;0.00;0.00;;;16.90;73.50;;;;;;4191681;28;20520;-68
2022/06/01 01:50:20;;;;;;;0.00;0.00;;;16.90;73.60;;;;;;4192410;28;20048;-68
2022/06/01 01:52:44;;;;;;;1.13;1.02;;;16.90;73.60;;;;;;4192460;28;20056;-67
2022/06/01 01:55:16;;;;;;;0.35;0.35;;;16.90;73.60;;;;;;4209002;28;20109;-68
2022/06/01 01:57:48;;;;;;;0.30;0.30;;;16.90;73.70;;;;;;4208819;28;20454;-68
2022/06/01 02:00:15;;;;;;;0.00;0.00;;;16.90;73.70;;;;;;4190801;28;20056;-68
2022/06/01 02:02:43;;;;;;;0.30;0.30;;;16.90;73.70;;;;;;4192263;28;20476;-68
2022/06/01 02:07:58;;;;;;;0.00;0.00;;;16.90;73.90;;;;;;4208559;28;20479;-67
2022/06/01 02:13:00;;;;;;;0.10;0.10;;;16.90;73.90;;;;;;4192130;28;20551;-68
2022/06/01 02:15:27;;;;;;;0.00;0.00;;;16.90;74.00;;;;;;4192258;28;20052;-68
2022/06/01 02:17:52;;;;;;;0.00;0.00;;;16.90;74.10;;;;;;4192223;28;20768;-68
2022/06/01 02:20:22;;;;;;;0.00;0.00;;;16.90;74.20;;;;;;4191330;28;20055;-68
2022/06/01 02:22:44;;;;;;;0.00;0.00;;;16.90;74.30;;;;;;4190583;28;20403;-67
2022/06/01 02:25:09;;;;;;;0.00;0.00;;;16.90;74.30;;;;;;4191809;28;20048;-68
2022/06/01 02:27:31;;;;;;;0.20;0.20;;;16.90;74.30;;;;;;4190669;28;20078;-68
2022/06/01 02:29:56;;;;;;;0.00;0.00;;;16.90;74.30;;;;;;4207596;28;20044;-69
2022/06/01 02:32:20;;;;;;;0.00;0.00;;;16.90;74.20;;;;;;4209161;28;20048;-68
2022/06/01 02:34:44;;;;;;;1.45;0.90;;;16.90;74.40;;;;;;4207622;28;20048;-69
2022/06/01 02:37:08;;;;;;;0.15;0.15;;;16.90;74.40;;;;;;4208986;28;20043;-68
2022/06/01 02:39:32;;;;;;;0.00;0.00;;;16.90;74.50;;;;;;4208378;28;20241;-68
2022/06/01 02:44:46;;;;;;;0.00;0.00;;;16.80;75.40;;;;;;4191279;28;20110;-68
2022/06/01 02:47:08;;;;;;;0.00;0.00;;;16.90;74.60;;;;;;4191860;28;20056;-68
2022/06/01 02:49:32;;;;;;;0.00;0.00;;;16.80;74.60;;;;;;4189233;28;20052;-68
2022/06/01 02:51:54;;;;;;;1.00;0.30;;;16.80;74.60;;;;;;4191654;28;20395;-68
2022/06/01 02:54:16;;;;;;;0.10;0.10;;;16.80;74.60;;;;;;4208597;28;20048;-68
2022/06/01 02:56:38;;;;;;;0.00;0.00;;;16.80;74.60;;;;;;4208839;28;20509;-68
2022/06/01 02:59:01;;;;;;;0.08;0.08;;;16.80;74.70;;;;;;4211554;28;20048;-68
2022/06/01 03:01:23;;;;;;;1.95;0.90;;;16.80;74.60;;;;;;4211996;28;20094;-67
2022/06/01 03:03:45;;;;;;;0.03;0.03;;;16.80;75.70;;;;;;4211889;28;20084;-68
2022/06/01 03:06:08;;;;;;;0.00;0.00;;;16.90;74.90;;;;;;4210983;28;20080;-68
2022/06/01 03:08:32;;;;;;;0.08;0.08;;;16.80;74.90;;;;;;4211684;28;20467;-67
2022/06/01 03:10:54;;;;;;;0.00;0.00;;;16.80;74.90;;;;;;4211766;28;20048;-68
2022/06/01 03:13:17;;;;;;;0.20;0.20;;;16.90;74.90;;;;;;4211346;28;20067;-68
2022/06/01 03:15:39;;;;;;;0.00;0.00;;;16.80;75.80;;;;;;4198991;28;20040;-67
2022/06/01 03:18:01;;;;;;;0.00;0.00;;;16.80;75.00;;;;;;4194305;28;20057;-68
2022/06/01 03:20:27;;;;;;;0.00;0.00;;;16.80;75.00;;;;;;4194615;28;20048;-67
2022/06/01 03:22:52;;;;;;;0.88;0.85;;;16.80;75.00;;;;;;4194735;28;20218;-68
2022/06/01 03:25:16;;;;;;;0.00;0.00;;;16.80;75.20;;;;;;4194182;28;20048;-68
2022/06/01 03:27:39;;;;;;;0.00;0.00;;;16.80;75.10;;;;;;4176746;28;20045;-68
2022/06/01 03:30:01;;;;;;;0.15;0.15;;;16.80;75.20;;;;;;4178560;28;20403;-68
2022/06/01 03:32:24;;;;;;;0.00;0.00;;;16.80;75.30;;;;;;4194586;28;20750;-68
2022/06/01 03:34:46;;;;;;;0.22;0.22;;;16.80;75.20;;;;;;4194533;28;20056;-70
2022/06/01 03:37:08;;;;;;;0.20;0.20;;;16.80;75.40;;;;;;4209332;28;20052;-69
2022/06/01 03:39:31;;;;;;;0.00;0.00;;;16.80;75.50;;;;;;4211407;28;20192;-69
2022/06/01 03:41:54;;;;;;;0.00;0.00;;;16.80;75.40;;;;;;4211197;28;20154;-69
2022/06/01 03:47:01;;;;;;;0.00;0.00;;;16.80;75.20;;;;;;4194743;28;20056;-69
2022/06/01 03:49:23;;;;;;;0.00;0.00;;;16.80;75.20;;;;;;4194136;28;20438;-69
2022/06/01 03:51:45;;;;;;;0.00;0.00;;;16.80;75.30;;;;;;4193920;28;20079;-69
2022/06/01 03:54:07;;;;;;;0.00;0.00;;;16.80;75.20;;;;;;4193705;28;20123;-70
2022/06/01 03:56:32;;;;;;;0.17;0.17;;;16.80;75.10;;;;;;4206800;28;20574;-69
2022/06/01 03:58:55;;;;;;;0.00;0.00;;;16.80;75.10;;;;;;4210829;28;20048;-69
2022/06/01 04:01:17;;;;;;;0.00;0.00;;;16.80;75.10;;;;;;4210622;28;20109;-68
2022/06/01 04:03:39;;;;;;;0.00;0.00;;;16.80;75.20;;;;;;4210735;28;20044;-69
2022/06/01 04:06:02;;;;;;;0.00;0.00;;;16.80;75.30;;;;;;4209311;28;20047;-69
2022/06/01 04:08:25;;;;;;;0.15;0.15;;;16.80;75.30;;;;;;4210171;28;20135;-68
2022/06/01 04:10:47;;;;;;;0.03;0.03;;;16.80;75.20;;;;;;4210556;28;20048;-68
2022/06/01 04:13:11;;;;;;;0.30;0.30;;;16.80;75.20;;;;;;4210889;28;20044;-69
2022/06/01 04:15:33;;;;;;;0.10;0.10;;;16.80;75.20;;;;;;4200045;28;20079;-68
2022/06/01 04:17:55;;;;;;;2.00;0.52;;;16.80;75.30;;;;;;4193671;28;20056;-68
2022/06/01 04:20:17;;;;;;;0.00;0.00;;;16.80;75.30;;;;;;4210613;28;20109;-68
2022/06/01 04:22:41;;;;;;;0.00;0.00;;;16.80;75.20;;;;;;4195197;28;20041;-68
2022/06/01 04:25:04;;;;;;;0.00;0.00;;;16.80;75.30;;;;;;4192433;28;20083;-68
2022/06/01 04:27:26;;;;;;;0.15;0.15;;;16.80;75.30;;;;;;4192518;28;20044;-68
2022/06/01 04:29:50;;;;;;;1.45;1.35;;;16.80;75.30;;;;;;4193681;28;20380;-69
2022/06/01 04:32:16;;;;;;;0.00;0.00;;;16.80;75.30;;;;;;4210152;28;20075;-69
2022/06/01 04:34:38;;;;;;;0.10;0.10;;;16.80;75.40;;;;;;4209749;28;20052;-69
2022/06/01 04:37:00;;;;;;;0.13;0.13;;;16.80;75.50;;;;;;4210052;28;20106;-68
2022/06/01 04:39:23;;;;;;;3.03;2.30;;;16.80;75.40;;;;;;4209803;28;20109;-70
2022/06/01 04:41:45;;;;;;;0.00;0.00;;;16.80;75.30;;;;;;4209773;28;20048;-70
2022/06/01 04:44:07;;;;;;;0.00;0.00;;;16.80;75.40;;;;;;4191456;28;20056;-70
2022/06/01 04:46:30;;;;;;;0.13;0.13;;;16.80;75.40;;;;;;4193051;28;20127;-71
2022/06/01 04:48:53;;;;;;;0.00;0.00;;;16.80;75.40;;;;;;4193040;28;20048;-69
2022/06/01 04:51:16;;;;;;;0.00;0.00;;;16.80;75.50;;;;;;4192915;28;20105;-69
2022/06/01 04:53:42;;;;;;;0.57;0.40;;;16.80;75.40;;;;;;4192548;28;20510;-69
2022/06/01 04:56:05;;;;;;;0.00;0.00;;;16.80;75.50;;;;;;4209478;28;20063;-68
2022/06/01 04:58:27;;;;;;;0.20;0.20;;;16.80;75.40;;;;;;4209759;28;20068;-69
2022/06/01 05:00:49;;;;;;;0.00;0.00;;;16.80;75.50;;;;;;4209529;28;20048;-69
2022/06/01 05:03:14;;;;;;;0.17;0.17;;;16.80;75.50;;;;;;4176413;28;20045;-68
2022/06/01 05:05:39;;;;;;;0.00;0.00;;;16.80;75.40;;;;;;4193077;28;20513;-69
2022/06/01 05:08:05;;;;;;;0.00;0.00;;;16.80;75.40;;;;;;4192749;28;20349;-68
2022/06/01 05:10:28;;;;;;;0.20;0.20;;;16.80;75.40;;;;;;4193010;28;20501;-68
2022/06/01 05:12:50;;;;;;;0.32;0.32;;;16.80;75.40;;;;;;4209163;28;20044;-68
2022/06/01 05:15:12;;;;;;;0.20;0.20;;;16.80;75.30;;;;;;4209647;28;20483;-68
2022/06/01 05:17:34;;;;;;;0.00;0.00;;;16.80;75.40;;;;;;4209601;28;20430;-68
2022/06/01 05:19:57;;;;;;;0.10;0.10;;;16.80;75.30;;;;;;4208504;28;20450;-68
2022/06/01 05:22:19;;;;;;;0.00;0.00;;;16.80;75.30;;;;;;4207557;28;20093;-68
2022/06/01 05:24:41;;;;;;;0.00;0.00;;;16.80;75.30;;;;;;4209628;28;20079;-68
2022/06/01 05:27:04;;;;;;;0.00;0.00;;;16.80;75.30;;;;;;4209224;28;20051;-67
2022/06/01 05:29:27;;;;;;;0.00;0.00;;;16.80;75.50;;;;;;4209437;28;20043;-68
2022/06/01 05:31:50;;;;;;;2.47;0.50;;;16.90;76.30;;;;;;4209282;28;20532;-69
2022/06/01 05:34:12;;;;;;;0.47;0.47;;;16.90;76.60;;;;;;4209270;28;20048;-68
2022/06/01 05:36:35;;;;;;;0.80;0.80;;;16.90;76.50;;;;;;4209341;28;20075;-68
2022/06/01 05:38:56;;;;;;;0.68;0.68;;;16.90;76.50;;;;;;4209209;28;20129;-68
2022/06/01 05:41:18;;;;;;;0.03;0.03;;;16.90;76.50;;;;;;4208805;28;20048;-68
2022/06/01 05:43:40;;;;;;;0.22;0.22;;;16.90;76.40;;;;;;4209300;28;20059;-69
2022/06/01 05:46:03;;;;;;;0.00;0.00;;;16.90;76.20;;;;;;4193113;28;20127;-68
2022/06/01 05:48:25;;;;;;;0.00;0.00;;;16.90;76.00;;;;;;4192172;28;20126;-68
2022/06/01 05:50:52;;;;;;;0.00;0.00;;;16.90;75.80;;;;;;4190185;28;20609;-68
2022/06/01 05:53:15;;;;;;;0.00;0.00;;;16.90;75.70;;;;;;4192294;28;20129;-69
2022/06/01 05:55:39;;;;;;;0.10;0.10;;;16.90;75.60;;;;;;4191001;28;20101;-69
2022/06/01 05:58:01;;;;;;;0.00;0.00;;;16.90;75.60;;;;;;4192511;28;20118;-69
2022/06/01 06:00:24;;;;;;;0.00;0.00;;;16.90;75.40;;;;;;4192031;28;20059;-68
2022/06/01 06:02:45;;;;;;;0.03;0.03;;;16.80;75.30;;;;;;4191563;28;20129;-67
2022/06/01 06:06:12;;;;;;;0.22;0.22;;;16.80;75.50;;;;;;4192308;28;20044;-67
2022/06/01 06:07:52;;;;;;;0.00;0.00;;;16.90;75.60;;;;;;4175532;28;20165;-67
2022/06/01 06:10:15;;;;;;;0.05;0.05;;;16.90;75.40;;;;;;4175974;28;20069;-66
2022/06/01 06:12:36;;;;;;;3.50;1.65;;;16.90;76.30;;;;;;4175453;28;20430;-66
2022/06/01 06:14:58;;;;;;;2.05;0.35;;;16.90;75.40;;;;;;4182303;28;20131;-67
2022/06/01 06:17:20;;;;;;;0.10;0.10;;;16.90;75.40;;;;;;4209024;28;20140;-67
2022/06/01 06:19:42;;;;;;;0.00;0.00;;;16.80;76.10;;;;;;4209203;28;20077;-67
2022/06/01 06:22:06;;;;;;;0.65;0.65;;;16.90;75.30;;;;;;4208656;28;20123;-67
2022/06/01 06:24:28;;;;;;;2.63;1.40;;;16.90;75.20;;;;;;4209002;28;20051;-67
2022/06/01 06:26:52;;;;;;;0.20;0.20;;;16.90;75.20;;;;;;4209067;28;20044;-67
2022/06/01 06:29:16;;;;;;;0.00;0.00;;;16.90;75.20;;;;;;4208636;28;20056;-68
2022/06/01 06:31:39;;;;;;;0.00;0.00;;;16.90;75.10;;;;;;4195210;28;20564;-68
2022/06/01 06:34:08;;;;;;;0.22;0.22;;;16.90;75.10;;;;;;4187996;28;20102;-67
2022/06/01 06:36:31;;;;;;;1.20;0.20;;;16.90;75.00;;;;;;4196446;28;20056;-67
2022/06/01 06:38:53;;;;;;;0.80;0.80;;;16.90;74.90;;;;;;4209586;28;20368;-67
2022/06/01 06:41:15;;;;;;;0.52;0.52;;;16.90;74.90;;;;;;4202609;28;20050;-67
2022/06/01 06:43:39;;;;;;;0.00;0.00;;;16.80;74.90;;;;;;4203938;28;20052;-67
2022/06/01 06:46:03;;;;;;;0.25;0.22;;;16.90;75.00;;;;;;4204898;28;20051;-67
2022/06/01 06:48:25;;;;;;;0.00;0.00;;;16.80;74.80;;;;;;4203068;28;20048;-67
2022/06/01 06:50:47;;;;;;;0.00;0.00;;;16.80;74.70;;;;;;4202831;28;20040;-67
2022/06/01 06:53:16;;;;;;;0.00;0.00;;;16.80;74.90;;;;;;4204029;28;20101;-67
2022/06/01 06:55:38;;;;;;;0.10;0.10;;;16.80;75.00;;;;;;4205286;28;20047;-68
2022/06/01 06:58:00;;;;;;;0.30;0.30;;;16.80;75.10;;;;;;4205571;28;20498;-67
2022/06/01 07:00:24;;;;;;;2.75;0.65;;;16.80;75.10;;;;;;4195044;28;20044;-67
2022/06/01 07:02:46;;;;;;;0.10;0.10;;;16.80;75.00;;;;;;4204614;28;20502;-67
2022/06/01 07:05:09;;;;;;;0.00;0.00;;;16.90;75.00;;;;;;4191584;28;20056;-67
2022/06/01 07:07:31;;;;;;;0.25;0.25;;;16.80;74.90;;;;;;4190791;28;20110;-67
2022/06/01 07:09:53;;;;;;;0.08;0.08;;;16.80;74.90;;;;;;4202686;28;20507;-67
2022/06/01 07:12:16;;;;;;;0.38;0.38;;;16.80;74.90;;;;;;4201420;28;20052;-67
2022/06/01 07:14:38;;;;;;;0.35;0.35;;;16.80;74.90;;;;;;4189976;28;20049;-67
2022/06/01 07:17:02;;;;;;;0.00;0.00;;;16.80;74.90;;;;;;4203362;28;20063;-67
2022/06/01 07:19:24;;;;;;;0.47;0.47;;;16.80;74.70;;;;;;4195492;28;20052;-67
2022/06/01 07:21:47;;;;;;;0.10;0.10;;;16.80;74.70;;;;;;4191363;28;20585;-67
2022/06/01 07:24:09;;;;;;;0.35;0.22;;;16.90;74.60;;;;;;4198359;28;20066;-68
2022/06/01 07:26:34;;;;;;;2.45;0.85;;;16.80;74.60;;;;;;4195793;28;20085;-68
2022/06/01 07:28:56;;;;;;;0.40;0.28;;;16.80;74.60;;;;;;4202788;28;20059;-68
2022/06/01 07:31:18;;;;;;;0.00;0.00;;;16.90;74.80;;;;;;4202549;28;21080;-68
2022/06/01 07:33:43;;;;;;;0.10;0.10;;;16.90;74.80;;;;;;4208376;28;20068;-68
2022/06/01 07:36:08;;;;;;;0.05;0.05;;;16.90;74.80;;;;;;4208244;28;20101;-69
2022/06/01 07:43:55;;;;;;;0.00;0.00;;;17.00;74.10;;;;;;4204563;28;20050;-69
2022/06/01 07:46:17;;;;;;;0.22;0.22;;;17.10;73.90;;;;;;4206015;28;20154;-69
2022/06/01 07:48:40;;;;;;;0.00;0.00;;;17.10;73.70;;;;;;4195839;28;20056;-68
2022/06/01 07:51:23;;;;;;;0.00;0.00;;;17.10;73.50;;;;;;4190871;28;20146;-69
2022/06/01 07:53:46;;;;;;;0.00;0.00;;;17.10;73.50;;;;;;4205141;28;20071;-69
2022/06/01 07:56:08;;;;;;;0.45;0.45;;;17.10;73.10;;;;;;4192069;28;20490;-69
2022/06/01 07:58:30;;;;;;;0.55;0.55;;;17.10;72.80;;;;;;4199382;28;20094;-69
2022/06/01 08:00:53;;;;;;;0.28;0.28;;;17.10;72.90;;;;;;4205244;28;20054;-69
2022/06/01 08:03:18;;;;;;;0.10;0.10;;;17.10;73.00;;;;;;4191579;28;20055;-69
2022/06/01 08:05:42;;;;;;;0.00;0.00;;;17.10;73.10;;;;;;4216888;27;20102;-69
2022/06/01 08:08:13;;;;;;;0.00;0.00;;;17.10;73.20;;;;;;4217920;27;20070;-68
2022/06/01 08:10:36;;;;;;;0.00;0.00;;;17.10;73.40;;;;;;4198873;28;20334;-69
2022/06/01 08:13:06;;;;;;;0.38;0.38;;;17.10;73.40;;;;;;4194888;28;20434;-69
2022/06/01 08:15:29;;;;;;;0.00;0.00;;;17.20;73.50;;;;;;4194261;28;20541;-69
2022/06/01 08:17:51;;;;;;;0.55;0.55;;;17.20;73.50;;;;;;4192285;28;20121;-69
2022/06/01 08:20:13;;;;;;;0.00;0.00;;;17.20;73.30;;;;;;4199830;28;20486;-69
2022/06/01 08:22:35;;;;;;;1.15;0.52;;;17.20;73.30;;;;;;4197881;28;20060;-68
2022/06/01 08:24:58;;;;;;;0.50;0.15;;;17.20;73.30;;;;;;4179428;28;20048;-68
2022/06/01 08:27:20;;;;;;;0.00;0.00;;;17.30;73.30;;;;;;4189123;28;20063;-69
2022/06/01 08:29:43;;;;;;;0.00;0.00;;;17.30;73.10;;;;;;4176054;28;20131;-70
2022/06/01 08:32:05;;;;;;;0.10;0.10;;;17.30;73.00;;;;;;4202212;28;20063;-69
2022/06/01 08:34:29;;;;;;;0.68;0.68;;;17.30;73.10;;;;;;4204674;28;20134;-68
2022/06/01 08:36:51;;;;;;;0.43;0.43;;;17.30;72.80;;;;;;4205764;28;20056;-69
2022/06/01 08:39:13;;;;;;;0.00;0.00;;;17.30;72.70;;;;;;4199269;28;20063;-69
2022/06/01 08:41:38;;;;;;;0.00;0.00;;;17.40;72.40;;;;;;4193583;28;20102;-69
2022/06/01 08:44:05;;;;;;;0.00;0.00;;;17.40;72.10;;;;;;4203856;28;20470;-69
2022/06/01 08:46:29;;;;;;;0.00;0.00;;;17.40;71.90;;;;;;4205024;28;20094;-69
2022/06/01 08:48:54;;;;;;;0.00;0.00;;;17.40;71.50;;;;;;4207056;28;20064;-69
2022/06/01 08:51:19;;;;;;;0.25;0.25;;;17.50;71.20;;;;;;4176858;28;20451;-69
2022/06/01 08:53:45;;;;;;;0.03;0.03;;;17.50;70.90;;;;;;4195651;28;20521;-69
2022/06/01 08:56:10;;;;;;;0.00;0.00;;;17.50;70.80;;;;;;4197771;28;20506;-68
2022/06/01 08:58:43;;;;;;;0.00;0.00;;;17.60;70.50;;;;;;4199655;28;20055;-68
2022/06/01 09:01:12;;;;;;;0.45;0.45;;;17.60;70.20;;;;;;4191810;28;20045;-68
2022/06/01 09:03:40;;;;;;;0.00;0.00;;;17.60;69.90;;;;;;4201202;28;20546;-68
2022/06/01 09:06:09;;;;;;;0.00;0.00;;;17.70;69.60;;;;;;4201952;28;20052;-68
2022/06/01 09:08:40;;;;;;;0.00;0.00;;;17.70;69.30;;;;;;4201378;28;20098;-68
2022/06/01 09:11:06;;;;;;;4.18;0.80;;;17.70;69.10;;;;;;4199506;28;20146;-68
2022/06/01 09:13:38;;;;;;;0.00;0.00;;;17.70;69.30;;;;;;4206300;28;20151;-68
2022/06/01 09:16:03;;;;;;;0.00;0.00;;;17.80;69.80;;;;;;4200078;28;20478;-68
2022/06/01 09:18:29;;;;;;;0.10;0.10;;;17.80;69.50;;;;;;4206063;28;20048;-68
2022/06/01 09:23:31;;;;;;;0.10;0.10;;;17.80;69.00;;;;;;4204895;28;20552;-68
2022/06/01 09:25:56;;;;;;;0.00;0.00;;;17.80;68.80;;;;;;4198473;28;20125;-68
2022/06/01 09:28:21;;;;;;;1.48;0.85;;;17.80;68.40;;;;;;4205002;28;20139;-69
2022/06/01 09:30:50;;;;;;;0.00;0.00;;;17.80;68.00;;;;;;4206376;28;20047;-70
2022/06/01 09:33:16;;;;;;;0.00;0.00;;;17.80;67.60;;;;;;4203776;28;20075;-69
2022/06/01 09:35:42;;;;;;;0.00;0.00;;;17.90;67.60;;;;;;4205592;28;20432;-71
2022/06/01 09:38:10;;;;;;;0.00;0.00;;;17.90;67.70;;;;;;4203331;28;20054;-71
2022/06/01 09:40:35;;;;;;;0.00;0.00;;;17.90;67.40;;;;;;4199789;28;20121;-70
2022/06/01 09:43:00;;;;;;;0.10;0.10;;;17.90;67.10;;;;;;4201741;28;20109;-70
2022/06/01 09:45:27;;;;;;;0.20;0.20;;;17.90;66.80;;;;;;4201795;28;20097;-70
2022/06/01 09:47:52;;;;;;;0.00;0.00;;;17.90;66.70;;;;;;4200713;28;20043;-70
2022/06/01 09:50:24;;;;;;;0.00;0.00;;;17.90;66.60;;;;;;4192618;28;20726;-70
2022/06/01 09:52:46;;;;;;;0.00;0.00;;;17.90;66.40;;;;;;4194342;28;20079;-70
2022/06/01 09:55:16;;;;;;;0.00;0.00;;;18.00;66.50;;;;;;4188894;28;20399;-70
2022/06/01 09:57:38;;;;;;;0.00;0.00;;;18.00;66.60;;;;;;4203865;28;20063;-69
2022/06/01 10:06:12;;;;;;;0.00;0.00;;;18.20;66.60;;;;;;4199523;28;20067;-68
2022/06/01 10:08:41;;;;;;;0.10;0.10;;;18.30;66.50;;;;;;4201340;28;20505;-69
2022/06/01 10:11:06;;;;;;;0.00;0.00;;;18.30;66.20;;;;;;4198528;28;20130;-69
2022/06/01 10:13:31;;;;;;;0.00;0.00;;;18.40;65.90;;;;;;4196877;28;20059;-68
2022/06/01 10:15:53;;;;;;;0.00;0.00;;;18.40;65.60;;;;;;4200628;28;20082;-69
2022/06/01 10:18:21;;;;;;;0.00;0.00;;;18.50;65.30;;;;;;4198025;28;20726;-70
2022/06/01 10:20:48;;;;;;;0.10;0.10;;;18.50;64.80;;;;;;4203329;28;20052;-70
2022/06/01 10:23:14;;;;;;;3.70;0.85;;;18.50;64.60;;;;;;4198193;28;20060;-69
2022/06/01 10:25:42;;;;;;;0.00;0.00;;;18.50;64.10;;;;;;4199684;28;20052;-69
2022/06/01 10:28:07;;;;;;;0.00;0.00;;;18.40;63.60;;;;;;4199748;28;20470;-69
2022/06/01 10:30:52;;;;;;;0.00;0.00;;;18.40;63.50;;;;;;4195118;28;20052;-70
2022/06/01 10:33:22;;;;;;;0.05;0.05;;;18.40;63.70;;;;;;4199373;28;20155;-69
2022/06/01 10:35:48;;;;;;;0.00;0.00;;;18.30;63.50;;;;;;4203915;28;20649;-69
2022/06/01 10:38:18;;;;;;;0.00;0.00;;;18.30;63.50;;;;;;4203053;28;20056;-69
2022/06/01 10:40:46;;;;;;;0.00;0.00;;;18.20;63.40;;;;;;4205469;28;20048;-69
2022/06/01 10:43:17;;;;;;;0.00;0.00;;;18.20;63.40;;;;;;4202709;28;20052;-69
2022/06/01 10:45:47;;;;;;;0.20;0.20;;;18.20;63.50;;;;;;4200475;28;20051;-69
2022/06/01 10:48:16;;;;;;;0.30;0.30;;;18.20;63.70;;;;;;4194875;28;20186;-69
2022/06/01 10:50:46;;;;;;;0.00;0.00;;;18.20;63.80;;;;;;4192984;28;20060;-68
2022/06/01 10:53:16;;;;;;;0.17;0.17;;;18.30;64.00;;;;;;4189255;28;20407;-69
2022/06/01 10:55:42;;;;;;;0.00;0.00;;;18.30;64.10;;;;;;4190781;28;20055;-68
2022/06/01 10:58:04;;;;;;;0.00;0.00;;;18.30;64.10;;;;;;4202204;28;20044;-69
2022/06/01 11:00:33;;;;;;;0.00;0.00;;;18.30;64.20;;;;;;4199029;28;20138;-69
2022/06/01 11:03:21;;;;;;;0.20;0.20;;;18.30;64.20;;;;;;4204670;28;20040;-69
2022/06/01 11:05:52;;;;;;;0.00;0.00;;;18.30;63.80;;;;;;4201384;28;20056;-69
2022/06/01 11:08:37;;;;;;;0.10;0.10;;;18.30;63.90;;;;;;4196510;28;20143;-69
2022/06/01 11:11:05;;;;;;;3.83;1.25;;;18.30;64.20;;;;;;4196395;28;20109;-70
2022/06/01 11:13:42;;;;;;;0.00;0.00;;;18.30;64.30;;;;;;4201038;28;20059;-69
2022/06/01 11:16:13;;;;;;;0.57;0.57;;;18.30;64.60;;;;;;4202448;28;20102;-69
2022/06/01 11:18:49;;;;;;;0.00;0.00;;;18.30;64.90;;;;;;4208314;28;20156;-69
2022/06/01 11:21:22;;;;;;;0.00;0.00;;;18.30;65.00;;;;;;4204834;28;20048;-69
2022/06/01 11:23:58;;;;;;;0.00;0.00;;;18.30;65.10;;;;;;4196936;28;20040;-70
2022/06/01 11:26:48;;;;;;;0.00;0.00;;;18.30;65.50;;;;;;4197638;28;20070;-68
2022/06/01 11:29:33;;;;;;;0.00;0.00;;;18.30;65.90;;;;;;4203118;28;20047;-69
2022/06/01 11:32:00;;;;;;;0.40;0.40;;;18.30;66.00;;;;;;4192289;28;20072;-69
2022/06/01 11:34:27;;;;;;;0.00;0.00;;;18.30;66.20;;;;;;4202141;28;20045;-69
2022/06/01 11:36:58;;;;;;;0.00;0.00;;;18.30;66.30;;;;;;4176039;28;20057;-71
2022/06/01 11:39:28;;;;;;;0.15;0.15;;;18.20;67.00;;;;;;4175454;28;20049;-70
2022/06/01 11:41:59;;;;;;;0.00;0.00;;;18.30;67.40;;;;;;4201691;28;20059;-70
2022/06/01 11:44:27;;;;;;;0.00;0.00;;;18.30;66.70;;;;;;4207071;28;20498;-70
2022/06/01 11:46:54;;;;;;;5.40;1.90;;;18.30;67.30;;;;;;4204096;28;20048;-69
2022/06/01 11:49:32;;;;;;;0.80;0.30;;;18.20;67.40;;;;;;4198659;28;20047;-69
2022/06/01 11:51:56;;;;;;;10.43;2.50;;;18.20;67.10;;;;;;4201754;28;20051;-69
2022/06/01 11:54:33;;;;;;;0.00;0.00;;;18.20;67.30;;;;;;4196132;28;20049;-69
2022/06/01 11:57:00;;;;;;;0.00;0.00;;;18.20;67.50;;;;;;4201659;28;20123;-69
2022/06/01 11:59:24;;;;;;;0.00;0.00;;;18.10;67.60;;;;;;4197997;28;20571;-69
2022/06/01 12:01:51;;;;;;;0.00;0.00;;;18.10;68.00;;;;;;4191687;28;20110;-69
2022/06/01 12:04:21;;;;;;;0.55;0.55;;;18.10;67.50;;;;;;4192344;28;20052;-69
2022/06/01 12:06:50;;;;;;;0.55;0.55;;;18.10;67.30;;;;;;4191426;28;20049;-69
2022/06/01 12:09:22;;;;;;;0.77;0.77;;;18.10;68.00;;;;;;4218566;28;20048;-69
2022/06/01 12:11:46;;;;;;;0.10;0.10;;;18.10;68.20;;;;;;4198860;28;20052;-69
2022/06/01 12:14:27;;;;;;;0.00;0.00;;;18.10;68.50;;;;;;4206399;28;20151;-68
2022/06/01 12:17:27;;;;;;;0.00;0.00;;;18.10;68.70;;;;;;4201417;28;20451;-68
2022/06/01 12:19:50;;;;;;;0.00;0.00;;;18.10;69.10;;;;;;4205194;28;20838;-68
2022/06/01 12:28:32;;;;;;;0.00;0.00;;;18.10;69.10;;;;;;4201535;28;20443;-68
2022/06/01 12:30:54;;;;;;;0.00;0.00;;;18.10;68.90;;;;;;4206360;28;20125;-68
2022/06/01 12:33:16;;;;;;;0.00;0.00;;;18.20;68.80;;;;;;4200902;28;20445;-69
2022/06/01 12:35:44;;;;;;;0.43;0.43;;;18.20;69.10;;;;;;4205158;28;20055;-69
2022/06/01 12:38:09;;;;;;;0.08;0.08;;;18.20;69.10;;;;;;4190243;28;20053;-66
2022/06/01 12:40:41;;;;;;;0.00;0.00;;;18.20;69.00;;;;;;4194838;28;20042;-68
2022/06/01 12:43:12;;;;;;;0.43;0.43;;;18.20;68.50;;;;;;4198189;28;20109;-68
2022/06/01 12:45:38;;;;;;;0.00;0.00;;;18.30;68.40;;;;;;4202051;28;20522;-68
2022/06/01 12:48:06;;;;;;;0.00;0.00;;;18.30;68.40;;;;;;4203994;28;20058;-68
2022/06/01 12:50:30;;;;;;;0.00;0.00;;;18.30;68.30;;;;;;4204600;28;20048;-68
2022/06/01 12:53:08;;;;;;;0.00;0.00;;;18.30;68.00;;;;;;4201482;28;20052;-69
2022/06/01 12:55:30;;;;;;;0.57;0.57;;;18.30;67.80;;;;;;4200459;28;20048;-67
2022/06/01 12:57:58;;;;;;;0.00;0.00;;;18.30;67.60;;;;;;4204809;28;20523;-69
2022/06/01 13:00:22;;;;;;;0.00;0.00;;;18.40;67.50;;;;;;4198912;28;20055;-68
2022/06/01 13:02:46;;;;;;;0.00;0.00;;;18.40;67.40;;;;;;4176423;28;20053;-68
2022/06/01 13:05:14;;;;;;;0.00;0.00;;;18.40;66.80;;;;;;4197815;28;20142;-69
2022/06/01 13:07:39;;;;;;;0.00;0.00;;;18.50;66.40;;;;;;4204650;28;20383;-69
2022/06/01 13:10:04;;;;;;;0.55;0.55;;;18.50;65.90;;;;;;4203833;28;20056;-69